Time;durP1;ratioP1;P1;durP2;ratioP2;P2;SDS_P1;SDS_P2;PMS_P1;PMS_P2;Temp;Humidity;BMP_temperature;BMP_pressure;BME280_temperature;BME280_humidity;BME280_pressure;Samples;Min_cycle;Max_cycle;Signal;HPM_P1;HPM_P2
2023/09/19 00:01:00;;;;;;;;;18.00;17.00;;;;;25.11;47.19;99999.91;110232;1257;22345;-36
2023/09/19 00:03:38;;;;;;;;;23.50;21.50;;;;;25.09;47.32;100002.71;110194;1248;20064;-37
2023/09/19 00:06:04;;;;;;;;;21.00;19.00;;;;;25.14;47.20;100001.83;110266;1250;20142;-38
2023/09/19 00:08:30;;;;;;;;;22.33;18.00;;;;;25.17;47.12;100001.41;110211;1247;22060;-38
2023/09/19 00:10:58;;;;;;;;;22.00;21.00;;;;;25.18;47.21;99998.27;110238;1250;19765;-38
2023/09/19 00:13:24;;;;;;;;;23.00;19.00;;;;;25.13;47.40;100001.63;110246;1247;18605;-38
2023/09/19 00:15:50;;;;;;;;;24.50;20.00;;;;;25.10;47.42;100001.82;110244;1263;19371;-36
2023/09/19 00:18:18;;;;;;;;;26.00;23.00;;;;;25.17;47.08;99999.33;110234;1247;22023;-37
2023/09/19 00:20:47;;;;;;;;;21.00;18.00;;;;;25.15;47.28;100001.02;110313;1249;20514;-37
2023/09/19 00:23:13;;;;;;;;;17.50;16.00;;;;;25.10;47.45;100003.63;110385;1257;23397;-37
2023/09/19 00:25:40;;;;;;;;;21.33;18.33;;;;;25.10;47.50;100005.11;110393;1262;18538;-37
2023/09/19 00:28:07;;;;;;;;;22.00;21.00;;;;;25.12;47.41;100003.85;110397;1262;18833;-36
2023/09/19 00:30:33;;;;;;;;;23.00;22.00;;;;;25.14;47.23;99995.58;110397;1254;20730;-37
2023/09/19 00:33:00;;;;;;;;;20.00;17.50;;;;;25.16;47.27;100002.41;110368;1262;18721;-37
2023/09/19 00:35:27;;;;;;;;;18.50;17.50;;;;;25.14;47.46;100000.98;110388;1247;22548;-38
2023/09/19 00:37:53;;;;;;;;;19.00;18.00;;;;;25.09;47.64;100003.61;110363;1247;20815;-37
2023/09/19 00:40:19;;;;;;;;;17.00;15.00;;;;;25.07;47.67;100002.42;110372;1257;18485;-38
2023/09/19 00:42:45;;;;;;;;;21.50;17.50;;;;;25.05;47.81;99999.77;110393;1247;19862;-38
2023/09/19 00:45:11;;;;;;;;;22.00;20.00;;;;;25.05;47.72;99997.86;110392;1248;20560;-38
2023/09/19 00:47:37;;;;;;;;;19.00;17.00;;;;;25.06;47.63;99994.27;110433;1247;22795;-37
2023/09/19 00:50:04;;;;;;;;;17.00;15.00;;;;;25.06;47.68;99994.32;110408;1248;20961;-38
2023/09/19 00:52:31;;;;;;;;;18.00;17.00;;;;;25.05;47.81;99995.45;110363;1256;19337;-37
2023/09/19 00:55:00;;;;;;;;;21.00;18.00;;;;;25.05;48.01;99991.92;110369;1262;22600;-38
2023/09/19 00:57:26;;;;;;;;;17.00;15.00;;;;;25.04;47.95;99984.30;110410;1262;20107;-37
2023/09/19 00:59:52;;;;;;;;;18.00;17.00;;;;;25.04;47.88;99987.03;110440;1248;22025;-37
2023/09/19 01:02:18;;;;;;;;;22.00;18.00;;;;;25.03;47.98;99986.67;110419;1248;19654;-37
2023/09/19 01:04:44;;;;;;;;;19.00;15.00;;;;;25.06;47.87;99986.27;110338;1262;18584;-37
2023/09/19 01:07:10;;;;;;;;;25.00;19.00;;;;;25.03;48.00;99985.25;110384;1248;20621;-38
2023/09/19 01:09:36;;;;;;;;;19.00;18.00;;;;;25.03;47.95;99982.35;110258;1246;20003;-37
2023/09/19 01:12:02;;;;;;;;;19.00;18.00;;;;;25.02;48.00;99980.84;110193;1250;20111;-38
2023/09/19 01:14:28;;;;;;;;;17.00;15.00;;;;;25.04;48.19;99981.77;110240;1250;22619;-37
2023/09/19 01:16:54;;;;;;;;;15.00;14.50;;;;;25.03;47.90;99976.48;110224;1249;22987;-37
2023/09/19 01:19:20;;;;;;;;;19.00;17.00;;;;;25.03;48.17;99972.86;110240;1250;22768;-38
2023/09/19 01:21:46;;;;;;;;;19.00;18.00;;;;;25.02;48.06;99972.73;110415;1247;21058;-38
2023/09/19 01:24:13;;;;;;;;;18.50;18.00;;;;;25.04;48.34;99962.17;110376;1262;19665;-37
2023/09/19 01:26:39;;;;;;;;;18.00;18.00;;;;;25.03;48.25;99956.05;110378;1248;20096;-37
2023/09/19 01:29:05;;;;;;;;;21.00;18.00;;;;;25.02;48.22;99955.05;110366;1248;20597;-37
2023/09/19 01:31:31;;;;;;;;;17.50;15.00;;;;;25.02;48.39;99954.04;110368;1248;20214;-37
2023/09/19 01:33:59;;;;;;;;;17.00;15.00;;;;;25.03;48.27;99953.91;110379;1248;22865;-37
2023/09/19 01:36:25;;;;;;;;;16.00;15.00;;;;;25.04;48.41;99952.11;110380;1247;20771;-37
2023/09/19 01:38:50;;;;;;;;;25.00;21.00;;;;;25.01;48.54;99954.95;110369;1247;20854;-37
2023/09/19 01:41:16;;;;;;;;;19.00;17.00;;;;;25.02;48.48;99958.91;110375;1248;20342;-38
2023/09/19 01:43:43;;;;;;;;;22.00;17.00;;;;;25.02;48.45;99952.17;110375;1255;19186;-37
2023/09/19 01:46:09;;;;;;;;;17.50;17.00;;;;;25.01;48.40;99948.92;110368;1248;22747;-38
2023/09/19 01:48:35;;;;;;;;;18.00;17.00;;;;;25.02;48.47;99951.14;110382;1248;22680;-38
2023/09/19 01:51:01;;;;;;;;;18.00;17.00;;;;;25.02;48.49;99948.46;110387;1248;22047;-37
2023/09/19 01:53:28;;;;;;;;;20.00;19.00;;;;;25.01;48.49;99944.34;110297;1262;19658;-37
2023/09/19 01:55:54;;;;;;;;;16.00;16.00;;;;;24.99;48.74;99943.81;110379;1262;18687;-37
2023/09/19 01:58:20;;;;;;;;;18.00;15.00;;;;;25.02;48.73;99944.05;110425;1256;20444;-36
2023/09/19 02:00:46;;;;;;;;;19.00;18.00;;;;;25.03;48.81;99945.70;110439;1248;19763;-37
2023/09/19 02:03:12;;;;;;;;;15.00;14.00;;;;;25.01;48.75;99943.27;110254;1257;23840;-37
2023/09/19 02:05:39;;;;;;;;;17.00;17.00;;;;;25.01;48.80;99943.43;110199;1247;20992;-38
2023/09/19 02:08:05;;;;;;;;;17.00;16.00;;;;;25.00;48.98;99946.11;110215;1247;20079;-37
2023/09/19 02:10:31;;;;;;;;;20.00;18.00;;;;;25.01;48.92;99949.36;110212;1264;18735;-37
2023/09/19 02:12:57;;;;;;;;;17.00;17.00;;;;;24.99;49.11;99953.36;110210;1249;20461;-38
2023/09/19 02:15:23;;;;;;;;;17.33;14.67;;;;;25.02;48.90;99954.59;110207;1263;22738;-38
2023/09/19 02:17:49;;;;;;;;;21.00;18.00;;;;;25.03;48.99;99950.45;110233;1263;19914;-37
2023/09/19 02:20:16;;;;;;;;;18.50;18.00;;;;;25.02;49.01;99945.52;110205;1263;23238;-37
2023/09/19 02:22:42;;;;;;;;;18.00;18.00;;;;;25.01;49.18;99948.59;110205;1247;22793;-37
2023/09/19 02:25:08;;;;;;;;;17.00;15.00;;;;;24.98;49.34;99942.65;110208;1263;18782;-37
2023/09/19 02:27:34;;;;;;;;;21.00;19.00;;;;;25.00;49.19;99949.49;110209;1263;19538;-37
2023/09/19 02:30:04;;;;;;;;;17.50;16.00;;;;;25.01;49.17;99953.69;110214;1263;18358;-37
2023/09/19 02:32:31;;;;;;;;;17.50;17.00;;;;;25.01;49.26;99955.40;110222;1247;22008;-36
2023/09/19 02:34:57;;;;;;;;;15.00;15.00;;;;;25.03;49.19;99956.37;110211;1250;21961;-37
2023/09/19 02:37:23;;;;;;;;;17.00;17.00;;;;;25.01;49.37;99960.16;110269;1247;22342;-37
2023/09/19 02:39:49;;;;;;;;;14.50;14.50;;;;;25.00;49.37;99963.09;110278;1264;21986;-36
2023/09/19 02:42:15;;;;;;;;;17.00;15.00;;;;;24.99;49.49;99953.80;110259;1264;19139;-36
2023/09/19 02:44:41;;;;;;;;;19.00;18.00;;;;;24.99;49.53;99945.53;110239;1264;20973;-38
2023/09/19 02:47:07;;;;;;;;;29.00;21.50;;;;;25.00;49.58;99938.49;110207;1264;19053;-38
2023/09/19 02:49:33;;;;;;;;;17.00;17.00;;;;;24.99;49.67;99931.27;110176;1264;19118;-37
2023/09/19 02:51:59;;;;;;;;;15.00;14.00;;;;;25.01;49.53;99923.13;110201;1264;18470;-37
2023/09/19 02:54:25;;;;;;;;;19.00;17.00;;;;;25.00;49.46;99913.71;110106;1260;19892;-37
2023/09/19 02:56:51;;;;;;;;;19.00;15.00;;;;;25.00;49.49;99920.73;110210;1260;20814;-38
2023/09/19 02:59:17;;;;;;;;;17.00;17.00;;;;;25.00;49.62;99939.60;110194;1247;21544;-38
2023/09/19 03:01:47;;;;;;;;;14.00;14.00;;;;;24.99;49.69;99953.75;110206;1263;18823;-38
2023/09/19 03:04:13;;;;;;;;;17.33;17.00;;;;;24.99;49.96;99958.45;110187;1250;20722;-38
2023/09/19 03:06:40;;;;;;;;;18.00;14.00;;;;;24.99;49.94;99963.77;110179;1263;18460;-37
2023/09/19 03:09:12;;;;;;;;;17.67;15.00;;;;;25.00;49.91;99963.00;110181;1247;22309;-37
2023/09/19 03:11:39;;;;;;;;;19.00;17.33;;;;;25.00;50.03;99964.45;110238;1264;22784;-37
2023/09/19 03:14:05;;;;;;;;;15.00;14.50;;;;;25.00;50.22;99966.03;110173;1247;20184;-37
2023/09/19 03:16:31;;;;;;;;;19.50;15.00;;;;;25.01;50.31;99967.48;110216;1264;19951;-36
2023/09/19 03:18:58;;;;;;;;;17.00;17.00;;;;;25.02;50.19;99967.10;110204;1264;19087;-36
2023/09/19 03:21:25;;;;;;;;;17.00;16.00;;;;;25.01;50.23;99969.13;110197;1264;18624;-38
2023/09/19 03:23:51;;;;;;;;;18.00;17.00;;;;;25.02;50.42;99970.71;110231;1263;18834;-37
2023/09/19 03:26:17;;;;;;;;;19.00;18.00;;;;;25.01;50.31;99974.58;110206;1264;19062;-38
2023/09/19 03:28:43;;;;;;;;;17.00;17.00;;;;;24.99;50.33;99977.31;110256;1247;20055;-38
2023/09/19 03:31:09;;;;;;;;;19.00;18.00;;;;;25.00;50.65;99982.33;110204;1256;18620;-37
2023/09/19 03:33:35;;;;;;;;;16.00;16.00;;;;;24.99;50.49;99990.95;110231;1264;20719;-36
2023/09/19 03:36:04;;;;;;;;;14.00;13.00;;;;;25.00;50.60;99986.92;110193;1250;22460;-36
2023/09/19 03:38:30;;;;;;;;;16.50;15.00;;;;;25.03;50.64;99983.67;110222;1250;20107;-37
2023/09/19 03:40:56;;;;;;;;;18.00;15.00;;;;;25.00;50.74;99985.80;110200;1264;19217;-37
2023/09/19 03:43:22;;;;;;;;;13.00;13.00;;;;;25.03;50.49;99997.64;110213;1264;18309;-37
2023/09/19 03:45:48;;;;;;;;;15.00;14.00;;;;;25.03;50.66;99993.38;110197;1250;19963;-37
2023/09/19 03:48:14;;;;;;;;;15.00;14.00;;;;;25.01;50.76;99992.34;110142;1247;20830;-38
2023/09/19 03:50:40;;;;;;;;;16.00;13.00;;;;;25.00;51.08;100003.97;110219;1250;22786;-37
2023/09/19 03:53:07;;;;;;;;;14.00;13.50;;;;;24.99;51.19;100002.58;110208;1248;22326;-38
2023/09/19 03:55:35;;;;;;;;;13.00;11.00;;;;;25.01;51.26;100006.75;110260;1247;20739;-39
2023/09/19 03:58:01;;;;;;;;;11.00;11.00;;;;;25.01;51.49;100012.23;110239;1250;20303;-38
2023/09/19 04:00:27;;;;;;;;;11.00;11.00;;;;;24.99;51.41;100010.03;110237;1263;18714;-37
2023/09/19 04:02:53;;;;;;;;;16.00;13.00;;;;;25.00;51.81;100011.39;110231;1264;19117;-37
2023/09/19 04:05:19;;;;;;;;;10.00;10.00;;;;;25.01;51.85;100009.27;110209;1256;21312;-37
2023/09/19 04:07:45;;;;;;;;;11.00;11.00;;;;;25.00;51.93;100013.19;110203;1264;18517;-37
2023/09/19 04:10:29;;;;;;;;;14.00;11.00;;;;;25.00;51.85;100013.99;110203;1264;19393;-38
2023/09/19 04:12:55;;;;;;;;;10.50;10.00;;;;;25.01;51.97;100015.52;110226;1264;20198;-38
2023/09/19 04:15:22;;;;;;;;;13.00;11.00;;;;;24.97;52.17;100011.17;110189;1264;20976;-38
2023/09/19 04:17:48;;;;;;;;;11.00;10.00;;;;;24.98;52.37;100000.67;110244;1265;19610;-37
2023/09/19 04:20:14;;;;;;;;;13.00;11.00;;;;;24.97;52.30;99992.22;110180;1264;18634;-37
2023/09/19 04:22:40;;;;;;;;;10.00;9.00;;;;;24.99;52.37;99994.59;110191;1264;20302;-38
2023/09/19 04:25:07;;;;;;;;;9.00;9.00;;;;;24.98;52.43;99992.29;110208;1250;20485;-37
2023/09/19 04:27:33;;;;;;;;;10.50;9.50;;;;;24.99;52.63;99987.63;110215;1264;20161;-38
2023/09/19 04:29:59;;;;;;;;;9.00;9.00;;;;;24.99;52.49;99990.08;110182;1265;21931;-36
2023/09/19 04:32:25;;;;;;;;;6.50;6.50;;;;;25.01;52.64;99990.02;110212;1264;20779;-37
2023/09/19 04:34:51;;;;;;;;;9.00;9.00;;;;;24.99;52.78;99992.88;110197;1264;20498;-37
2023/09/19 04:37:17;;;;;;;;;10.00;10.00;;;;;24.97;52.97;99987.38;110214;1265;19914;-38
2023/09/19 04:39:44;;;;;;;;;11.00;9.50;;;;;24.97;52.93;99986.56;110221;1250;20863;-37
2023/09/19 04:42:14;;;;;;;;;10.67;10.67;;;;;24.97;53.16;99989.74;110123;1257;20018;-38
2023/09/19 04:44:40;;;;;;;;;15.67;15.00;;;;;25.01;52.79;99986.69;110179;1264;18870;-37
2023/09/19 04:47:06;;;;;;;;;18.00;16.00;;;;;25.09;53.35;99989.36;110195;1257;20782;-38
2023/09/19 04:49:32;;;;;;;;;13.00;11.00;;;;;25.04;53.70;99986.26;110220;1264;18478;-37
2023/09/19 04:51:58;;;;;;;;;13.50;13.00;;;;;25.00;54.05;99981.44;110211;1250;19917;-38
2023/09/19 04:54:24;;;;;;;;;14.50;13.50;;;;;24.95;54.44;99978.59;110225;1250;20540;-38
2023/09/19 04:56:50;;;;;;;;;17.50;15.50;;;;;24.93;54.80;99972.04;110203;1247;19755;-37
2023/09/19 04:59:16;;;;;;;;;15.00;14.00;;;;;24.93;54.53;99972.74;110200;1250;19895;-38
2023/09/19 05:01:42;;;;;;;;;14.00;13.50;;;;;24.88;55.04;99971.86;110229;1250;20516;-37
2023/09/19 05:04:08;;;;;;;;;15.00;14.00;;;;;24.85;55.30;99972.23;110192;1263;18309;-38
2023/09/19 05:06:34;;;;;;;;;13.00;13.00;;;;;24.83;55.50;99969.06;110111;1257;19996;-38
2023/09/19 05:09:00;;;;;;;;;17.00;14.00;;;;;24.85;55.28;99967.91;110178;1248;20510;-38
2023/09/19 05:11:26;;;;;;;;;13.00;12.00;;;;;24.79;55.54;99961.38;110226;1249;19712;-38
2023/09/19 05:13:52;;;;;;;;;11.00;10.00;;;;;24.84;55.83;99968.72;110126;1250;20064;-35
2023/09/19 05:16:19;;;;;;;;;16.00;14.00;;;;;24.86;55.53;99972.33;110256;1250;23393;-37
2023/09/19 05:18:44;;;;;;;;;10.00;10.00;;;;;24.83;56.10;99971.91;110200;1250;22034;-39
2023/09/19 05:21:11;;;;;;;;;13.00;12.00;;;;;24.85;56.34;99971.98;110181;1250;21169;-38
2023/09/19 05:23:38;;;;;;;;;17.00;17.00;;;;;24.87;56.37;99974.20;110193;1250;21992;-38
2023/09/19 05:26:05;;;;;;;;;22.50;19.50;;;;;24.89;56.47;99980.47;110206;1250;19910;-38
2023/09/19 05:28:32;;;;;;;;;23.00;22.00;;;;;24.87;57.09;99978.48;110189;1265;20009;-39
2023/09/19 05:30:59;;;;;;;;;81.00;57.00;;;;;24.89;57.38;99981.72;110179;1251;19340;-38
2023/09/19 05:33:25;;;;;;;;;141.50;107.50;;;;;24.82;57.93;99984.91;110176;1251;20135;-38
2023/09/19 05:35:51;;;;;;;;;334.00;226.50;;;;;24.91;57.70;99980.38;110180;1263;22597;-40
2023/09/19 05:38:18;;;;;;;;;336.00;244.00;;;;;24.94;57.87;99982.52;110195;1250;22374;-38
2023/09/19 05:40:45;;;;;;;;;308.00;217.75;;;;;24.89;58.25;99981.94;110189;1248;20403;-39
2023/09/19 05:43:11;;;;;;;;;240.33;170.67;;;;;24.89;58.13;99978.66;110195;1247;18879;-40
2023/09/19 05:45:37;;;;;;;;;168.50;122.50;;;;;24.89;57.93;99980.52;110202;1250;22004;-38
2023/09/19 05:48:05;;;;;;;;;119.00;89.00;;;;;24.92;57.96;99984.27;110208;1249;22283;-38
2023/09/19 05:50:32;;;;;;;;;99.00;67.00;;;;;24.93;57.85;99984.90;110180;1257;21139;-38
2023/09/19 05:52:58;;;;;;;;;82.00;62.00;;;;;24.92;57.65;99980.50;110117;1250;21882;-38
2023/09/19 05:55:24;;;;;;;;;73.00;57.00;;;;;24.88;57.47;99981.48;110248;1247;22110;-38
2023/09/19 05:57:51;;;;;;;;;61.50;48.00;;;;;24.84;57.69;99986.50;110192;1263;19077;-38
2023/09/19 06:00:17;;;;;;;;;47.00;41.00;;;;;24.81;57.76;99990.71;110215;1247;22216;-37
2023/09/19 06:02:44;;;;;;;;;38.00;33.00;;;;;24.80;57.36;99994.09;110223;1257;20127;-37
2023/09/19 06:05:10;;;;;;;;;29.00;27.00;;;;;24.78;57.80;99992.05;110277;1263;18873;-37
2023/09/19 06:07:37;;;;;;;;;32.00;24.00;;;;;24.79;57.32;99993.92;109939;1248;367981;-37
2023/09/19 06:10:05;;;;;;;;;22.33;20.33;;;;;24.74;57.47;99990.14;110233;1264;22193;-36
2023/09/19 06:12:32;;;;;;;;;13.00;13.00;;;;;24.76;57.62;99998.67;110248;1250;22175;-36
2023/09/19 06:14:59;;;;;;;;;12.33;12.33;;;;;24.75;57.40;100004.63;110204;1256;22831;-37
2023/09/19 06:17:27;;;;;;;;;11.00;10.00;;;;;24.74;57.66;100006.40;110210;1263;22686;-37
2023/09/19 06:19:53;;;;;;;;;10.00;9.50;;;;;24.73;57.46;100011.52;110223;1248;24079;-37
2023/09/19 06:22:19;;;;;;;;;9.50;9.00;;;;;24.75;57.59;100012.46;110282;1264;22395;-37
2023/09/19 06:24:46;;;;;;;;;10.00;10.00;;;;;24.72;57.44;100011.77;110253;1247;21128;-37
2023/09/19 06:27:13;;;;;;;;;9.33;8.33;;;;;24.69;57.78;100015.23;110167;1250;21872;-37
2023/09/19 06:29:39;;;;;;;;;13.00;12.00;;;;;24.69;57.73;100018.69;110189;1263;22639;-38
2023/09/19 06:32:05;;;;;;;;;22.00;16.00;;;;;24.67;57.83;100015.75;110194;1263;19353;-38
2023/09/19 06:34:31;;;;;;;;;23.00;21.50;;;;;24.65;57.89;100012.77;110158;1250;22324;-38
2023/09/19 06:36:57;;;;;;;;;20.00;18.00;;;;;24.68;57.70;100009.85;110261;1256;21950;-38
2023/09/19 06:39:23;;;;;;;;;13.00;12.50;;;;;24.67;57.89;100007.69;110285;1250;19877;-37
2023/09/19 06:41:49;;;;;;;;;12.50;12.00;;;;;24.66;57.87;100016.64;110290;1257;19931;-37
2023/09/19 06:44:15;;;;;;;;;13.00;12.00;;;;;24.65;57.58;100023.57;110211;1263;19230;-37
2023/09/19 06:46:43;;;;;;;;;11.00;10.00;;;;;24.64;57.64;100032.42;110209;1258;19924;-38
2023/09/19 06:49:10;;;;;;;;;10.00;10.00;;;;;24.64;57.82;100038.77;110233;1250;21330;-38
2023/09/19 06:51:36;;;;;;;;;10.00;10.00;;;;;24.61;57.86;100039.06;110264;1250;22743;-36
2023/09/19 06:54:05;;;;;;;;;9.00;8.00;;;;;24.63;57.73;100044.81;110270;1264;22817;-37
2023/09/19 06:56:31;;;;;;;;;9.50;8.00;;;;;24.63;57.57;100045.85;110276;1264;20188;-37
2023/09/19 06:58:57;;;;;;;;;8.33;7.33;;;;;24.64;57.39;100052.91;110277;1248;19535;-37
2023/09/19 07:01:25;;;;;;;;;9.00;8.00;;;;;24.58;57.82;100050.00;110256;1250;18693;-37
2023/09/19 07:03:51;;;;;;;;;10.00;9.50;;;;;24.60;57.78;100050.43;110301;1250;22200;-36
2023/09/19 07:06:17;;;;;;;;;10.00;9.50;;;;;24.50;57.74;100057.14;110265;1250;20412;-36
2023/09/19 07:08:45;;;;;;;;;10.00;10.00;;;;;24.06;59.17;100062.59;110279;1250;20017;-36
2023/09/19 07:11:12;;;;;;;;;9.00;9.00;;;;;23.86;59.89;100059.77;110235;1247;18826;-36
2023/09/19 07:13:38;;;;;;;;;15.50;12.50;;;;;23.67;60.50;100059.88;110173;1250;22319;-37
2023/09/19 07:16:04;;;;;;;;;24.00;22.00;;;;;23.58;60.30;100061.84;110219;1247;20454;-37
2023/09/19 07:18:30;;;;;;;;;19.50;17.00;;;;;23.50;60.42;100065.66;110193;1263;19964;-38
2023/09/19 07:21:01;;;;;;;;;12.00;12.00;;;;;23.49;60.76;100064.64;110191;1247;20527;-37
2023/09/19 07:23:27;;;;;;;;;13.33;12.00;;;;;23.49;61.30;100067.05;110152;1264;22672;-36
2023/09/19 07:25:52;;;;;;;;;12.00;12.00;;;;;23.56;60.56;100064.23;110214;1247;20648;-37
2023/09/19 07:28:18;;;;;;;;;14.00;13.00;;;;;23.42;60.88;100071.29;110212;1247;19137;-36
2023/09/19 07:30:45;;;;;;;;;13.00;12.00;;;;;23.40;60.78;100069.07;110188;1247;22768;-36
2023/09/19 07:33:11;;;;;;;;;11.00;11.00;;;;;23.41;60.70;100070.27;110229;1248;19814;-38
2023/09/19 07:35:39;;;;;;;;;14.00;14.00;;;;;23.48;60.62;100076.02;110274;1250;22671;-36
2023/09/19 07:38:05;;;;;;;;;15.00;12.00;;;;;23.44;60.83;100075.13;110186;1264;18727;-38
2023/09/19 07:40:31;;;;;;;;;17.33;16.00;;;;;23.34;60.62;100078.01;110200;1263;22853;-37
2023/09/19 07:43:01;;;;;;;;;12.00;11.00;;;;;23.21;60.93;100073.48;110231;1264;20446;-38
2023/09/19 07:45:27;;;;;;;;;15.00;14.00;;;;;23.32;60.61;100079.91;110324;1250;20025;-36
2023/09/19 07:47:53;;;;;;;;;15.50;13.00;;;;;23.34;60.33;100081.45;110245;1248;20212;-36
2023/09/19 07:50:19;;;;;;;;;15.00;14.00;;;;;23.23;60.28;100080.57;110206;1263;19592;-36
2023/09/19 07:52:45;;;;;;;;;14.00;14.00;;;;;23.17;60.46;100081.98;110181;1264;18387;-35
2023/09/19 07:55:15;;;;;;;;;16.00;14.00;;;;;23.14;60.49;100081.62;110159;1247;21983;-36
2023/09/19 07:57:42;;;;;;;;;14.00;14.00;;;;;23.09;60.68;100086.08;110136;1263;22801;-36
2023/09/19 08:00:10;;;;;;;;;14.00;14.00;;;;;23.03;60.87;100086.52;110233;1250;22110;-36
2023/09/19 08:02:37;;;;;;;;;14.00;11.50;;;;;23.03;60.56;100087.83;110186;1250;20160;-35
2023/09/19 08:05:06;;;;;;;;;14.00;12.00;;;;;23.03;60.51;100090.79;110258;1247;21083;-36
2023/09/19 08:07:32;;;;;;;;;14.00;11.00;;;;;22.97;61.04;100093.23;110278;1249;20069;-36
2023/09/19 08:09:58;;;;;;;;;12.00;12.00;;;;;22.89;61.14;100097.36;110314;1247;18490;-35
2023/09/19 08:12:25;;;;;;;;;11.00;11.00;;;;;22.92;61.07;100097.58;110223;1250;20808;-36
2023/09/19 08:14:51;;;;;;;;;8.50;8.50;;;;;23.24;60.18;100099.07;110165;1257;22765;-37
2023/09/19 08:17:17;;;;;;;;;11.00;9.00;;;;;23.58;59.07;100099.95;110212;1257;18703;-37
2023/09/19 08:19:44;;;;;;;;;8.00;8.00;;;;;23.76;58.78;100099.19;110204;1263;19064;-37
2023/09/19 08:22:10;;;;;;;;;6.50;6.50;;;;;23.89;58.40;100096.68;110124;1250;21996;-37
2023/09/19 08:24:36;;;;;;;;;8.00;8.00;;;;;23.98;58.16;100095.05;110184;1263;20905;-37
2023/09/19 08:27:04;;;;;;;;;6.00;6.00;;;;;24.07;57.71;100100.30;110187;1247;22559;-37
2023/09/19 08:29:30;;;;;;;;;6.00;5.50;;;;;24.14;57.31;100099.07;110205;1247;21367;-38
2023/09/19 08:31:56;;;;;;;;;6.00;6.00;;;;;24.22;57.21;100104.09;110217;1263;18456;-38
2023/09/19 08:34:22;;;;;;;;;6.00;5.00;;;;;24.26;56.80;100111.45;110190;1263;19130;-38
2023/09/19 08:36:48;;;;;;;;;8.00;8.00;;;;;24.32;56.63;100116.44;110177;1249;19419;-38
2023/09/19 08:39:15;;;;;;;;;6.00;6.00;;;;;24.33;56.64;100125.66;110293;1263;18661;-38
2023/09/19 08:41:41;;;;;;;;;5.00;5.00;;;;;24.32;56.36;100122.56;110247;1247;22335;-37
2023/09/19 08:44:07;;;;;;;;;8.00;6.00;;;;;24.37;56.32;100122.77;110285;1248;22300;-37
2023/09/19 08:46:35;;;;;;;;;8.00;6.00;;;;;24.38;56.30;100126.31;110225;1263;22790;-36
2023/09/19 08:49:01;;;;;;;;;6.00;6.00;;;;;24.43;56.03;100127.30;110266;1248;20762;-36
2023/09/19 08:51:28;;;;;;;;;6.00;6.00;;;;;24.43;56.20;100135.16;110306;1257;19818;-36
2023/09/19 08:53:54;;;;;;;;;6.00;6.00;;;;;24.42;55.96;100137.21;110340;1248;20379;-36
2023/09/19 08:56:22;;;;;;;;;8.00;8.00;;;;;24.45;55.90;100132.43;110260;1250;21755;-36
2023/09/19 08:58:48;;;;;;;;;8.00;6.00;;;;;24.49;55.80;100134.91;110246;1247;18390;-37
2023/09/19 09:01:14;;;;;;;;;8.00;8.00;;;;;24.54;55.52;100138.08;110180;1257;19977;-36
2023/09/19 09:03:40;;;;;;;;;5.00;5.00;;;;;24.57;55.55;100142.20;110210;1263;23035;-37
2023/09/19 09:06:06;;;;;;;;;6.00;6.00;;;;;24.50;55.60;100139.44;110169;1250;19855;-37
2023/09/19 09:08:32;;;;;;;;;5.00;5.00;;;;;24.49;55.63;100140.00;110106;1263;18399;-38
2023/09/19 09:10:58;;;;;;;;;8.00;8.00;;;;;24.50;55.50;100143.75;110197;1247;20762;-38
2023/09/19 09:13:26;;;;;;;;;19.50;17.50;;;;;24.38;55.74;100152.46;110188;1250;19869;-36
2023/09/19 09:15:54;;;;;;;;;18.00;18.00;;;;;23.89;57.49;100151.18;110223;1263;21184;-37
2023/09/19 09:18:20;;;;;;;;;18.00;14.00;;;;;23.94;57.63;100154.63;110190;1247;20968;-37
2023/09/19 09:20:47;;;;;;;;;14.00;14.00;;;;;24.24;58.27;100161.70;110208;1249;20991;-37
2023/09/19 09:23:13;;;;;;;;;16.00;14.00;;;;;24.34;58.72;100163.74;110199;1248;23166;-37
2023/09/19 09:25:39;;;;;;;;;14.50;14.50;;;;;24.41;58.26;100162.00;110225;1250;20600;-36
2023/09/19 09:28:06;;;;;;;;;19.00;17.00;;;;;24.20;57.74;100159.98;110203;1264;22303;-37
2023/09/19 09:30:32;;;;;;;;;14.00;14.00;;;;;23.85;58.33;100164.70;110185;1263;22252;-36
2023/09/19 09:32:58;;;;;;;;;14.00;14.00;;;;;23.77;58.39;100158.63;110221;1263;19007;-37
2023/09/19 09:35:24;;;;;;;;;16.00;13.00;;;;;23.61;58.69;100154.02;110183;1263;18372;-37
2023/09/19 09:37:53;;;;;;;;;12.00;12.00;;;;;23.73;58.48;100159.16;110201;1250;22764;-37
2023/09/19 09:40:35;;;;;;;;;12.00;12.00;;;;;23.75;58.57;100158.69;110226;1264;22862;-37
2023/09/19 09:43:02;;;;;;;;;12.33;12.00;;;;;23.63;58.86;100157.11;110236;1264;19993;-36
2023/09/19 09:45:36;;;;;;;;;16.00;16.00;;;;;23.66;58.70;100154.31;110210;1250;19867;-36
2023/09/19 09:48:03;;;;;;;;;14.00;12.50;;;;;23.62;58.93;100159.21;110126;1264;22820;-37
2023/09/19 09:50:39;;;;;;;;;12.00;12.00;;;;;23.57;58.80;100164.11;110193;1247;18540;-37
2023/09/19 09:53:06;;;;;;;;;13.00;12.00;;;;;23.48;58.26;100165.13;110231;1264;22847;-37
2023/09/19 09:55:33;;;;;;;;;11.00;11.00;;;;;23.52;57.66;100163.64;110259;1257;21917;-37
2023/09/19 09:57:59;;;;;;;;;13.00;12.00;;;;;23.58;57.31;100162.41;110245;1256;20233;-37
2023/09/19 10:00:32;;;;;;;;;8.00;8.00;;;;;23.54;57.22;100159.90;110217;1256;18384;-36
2023/09/19 10:02:58;;;;;;;;;11.50;9.00;;;;;23.71;56.77;100158.64;110215;1247;22229;-37
2023/09/19 10:05:40;;;;;;;;;12.00;11.00;;;;;23.70;56.69;100158.02;110208;1247;19573;-36
2023/09/19 10:08:09;;;;;;;;;12.00;12.00;;;;;23.50;57.41;100166.36;110200;1250;22582;-37
2023/09/19 10:10:44;;;;;;;;;17.00;15.00;;;;;23.43;57.20;100173.65;110135;1247;21870;-37
2023/09/19 10:13:13;;;;;;;;;20.00;19.00;;;;;23.37;57.10;100172.28;110226;1251;20319;-37
2023/09/19 10:15:40;;;;;;;;;15.50;15.00;;;;;23.43;56.82;100179.79;110264;1264;22703;-37
2023/09/19 10:18:08;;;;;;;;;19.00;18.00;;;;;23.44;56.77;100190.58;110292;1250;20648;-37
2023/09/19 10:20:35;;;;;;;;;15.00;13.33;;;;;23.47;56.64;100196.11;110256;1248;19045;-37
2023/09/19 10:23:01;;;;;;;;;12.00;12.00;;;;;23.30;56.89;100201.00;110212;1247;20285;-36
2023/09/19 10:25:29;;;;;;;;;11.00;11.00;;;;;23.34;56.68;100201.75;110209;1250;21948;-38
2023/09/19 10:27:55;;;;;;;;;13.67;11.00;;;;;23.41;56.10;100208.51;110235;1249;21167;-37
2023/09/19 10:30:21;;;;;;;;;11.00;11.00;;;;;23.44;56.32;100205.02;110280;1248;20374;-37
2023/09/19 10:32:47;;;;;;;;;11.00;11.00;;;;;23.44;56.57;100200.48;110295;1250;20538;-37
2023/09/19 10:35:13;;;;;;;;;12.00;11.00;;;;;23.43;57.00;100197.25;110284;1257;19675;-37
2023/09/19 10:37:39;;;;;;;;;12.00;12.00;;;;;23.43;57.03;100195.52;110274;1250;19952;-35
2023/09/19 10:40:08;;;;;;;;;11.00;11.00;;;;;23.51;57.04;100200.79;110300;1264;19158;-35
2023/09/19 10:42:34;;;;;;;;;11.00;11.00;;;;;23.54;57.07;100200.84;110294;1264;18748;-35
2023/09/19 10:45:00;;;;;;;;;10.00;10.00;;;;;23.49;57.34;100207.00;110198;1253;20243;-35
2023/09/19 10:47:26;;;;;;;;;10.00;10.00;;;;;23.46;56.88;100209.73;110252;1250;20424;-35
2023/09/19 10:49:53;;;;;;;;;12.00;11.00;;;;;23.46;56.55;100209.02;110288;1256;20777;-35
2023/09/19 10:52:19;;;;;;;;;9.00;9.00;;;;;23.56;55.85;100209.08;110287;1250;20133;-36
2023/09/19 10:54:45;;;;;;;;;11.50;11.50;;;;;23.63;55.78;100209.73;110249;1248;20647;-36
2023/09/19 10:57:16;;;;;;;;;11.00;11.00;;;;;23.62;56.16;100208.75;110248;1250;19410;-36
2023/09/19 10:59:43;;;;;;;;;12.00;12.00;;;;;23.49;56.34;100210.78;110245;1247;21275;-37
2023/09/19 11:02:09;;;;;;;;;9.00;9.00;;;;;23.59;55.89;100218.92;110243;1250;22108;-37
2023/09/19 11:04:35;;;;;;;;;12.00;12.00;;;;;23.59;56.37;100212.58;110240;1247;21082;-39